createdAt,value
2017-11-22T00:00:23.489Z,2.47
2017-11-22T00:02:51.178Z,2.17
2017-11-22T00:05:18.951Z,0.53
2017-11-22T00:07:46.745Z,1.70
2017-11-22T00:10:14.425Z,0.60
2017-11-22T00:12:42.152Z,1.80
2017-11-22T00:15:09.835Z,5.30
2017-11-22T00:17:37.575Z,5.03
2017-11-22T00:20:05.675Z,0.50
2017-11-22T00:22:33.385Z,1.47
2017-11-22T00:25:01.111Z,1.67
2017-11-22T00:27:28.844Z,2.60
2017-11-22T00:29:56.579Z,2.47
2017-11-22T00:32:24.300Z,2.00
2017-11-22T00:34:51.990Z,2.20
2017-11-22T00:37:19.738Z,10.10
2017-11-22T00:39:47.550Z,1.20
2017-11-22T00:42:15.271Z,1.57
2017-11-22T00:44:43.016Z,5.70
2017-11-22T00:47:10.737Z,2.77
2017-11-22T00:49:38.423Z,0.93
2017-11-22T00:52:06.136Z,2.27
2017-11-22T00:54:33.875Z,1.27
2017-11-22T00:57:01.638Z,3.80
2017-11-22T00:59:29.341Z,1.90
2017-11-22T01:01:57.087Z,1.80
2017-11-22T01:04:24.752Z,1.40
2017-11-22T01:06:52.497Z,2.43
2017-11-22T01:09:20.212Z,3.73
2017-11-22T01:11:47.965Z,1.83
2017-11-22T01:14:15.780Z,3.33
2017-11-22T01:16:43.459Z,1.97
2017-11-22T01:19:11.218Z,0.63
2017-11-22T01:21:38.906Z,0.83
2017-11-22T01:24:06.597Z,1.77
2017-11-22T01:26:34.348Z,2.87
2017-11-22T01:29:02.088Z,15.73
2017-11-22T01:31:29.826Z,1.67
2017-11-22T01:33:57.515Z,1.03
2017-11-22T01:36:25.236Z,1.53
2017-11-22T01:38:53.040Z,1.57
2017-11-22T01:41:20.773Z,1.40
2017-11-22T01:43:48.652Z,2.43
2017-11-22T01:46:16.391Z,6.40
2017-11-22T01:48:44.187Z,0.83
2017-11-22T01:51:11.885Z,1.10
2017-11-22T01:53:39.595Z,1.93
2017-11-22T01:56:07.333Z,2.60
2017-11-22T01:58:35.009Z,0.87
2017-11-22T02:01:02.746Z,2.70
2017-11-22T02:03:30.449Z,2.63
2017-11-22T02:05:58.230Z,1.70
2017-11-22T02:08:25.964Z,2.20
2017-11-22T02:10:53.729Z,1.73
2017-11-22T02:13:21.406Z,0.80
2017-11-22T02:15:49.285Z,1.60
2017-11-22T02:18:16.950Z,1.50
2017-11-22T02:20:44.666Z,7.40
2017-11-22T02:23:12.348Z,1.97
2017-11-22T02:25:40.099Z,14.20
2017-11-22T02:28:07.825Z,1.20
2017-11-22T02:30:35.525Z,4.00
2017-11-22T02:33:03.313Z,4.10
2017-11-22T02:35:32.188Z,2.60
2017-11-22T02:37:59.938Z,4.10
2017-11-22T02:40:27.667Z,1.10
2017-11-22T02:42:55.454Z,1.30
2017-11-22T02:45:23.432Z,6.43
2017-11-22T02:47:51.144Z,1.50
2017-11-22T02:50:18.879Z,2.10
2017-11-22T02:52:46.682Z,2.00
2017-11-22T02:55:14.418Z,0.63
2017-11-22T02:57:42.176Z,0.87
2017-11-22T03:00:09.920Z,2.20
2017-11-22T03:02:37.608Z,3.33
2017-11-22T03:05:05.361Z,0.73
2017-11-22T03:07:33.066Z,1.33
2017-11-22T03:10:00.780Z,2.43
2017-11-22T03:12:28.451Z,2.23
2017-11-22T03:14:56.208Z,1.67
2017-11-22T03:17:24.033Z,3.03
2017-11-22T03:22:25.541Z,1.83
2017-11-22T03:24:53.283Z,2.50
2017-11-22T03:27:21.050Z,3.90
2017-11-22T03:29:48.754Z,1.70
2017-11-22T03:32:16.631Z,2.10
2017-11-22T03:34:44.354Z,1.03
2017-11-22T03:37:12.117Z,4.17
2017-11-22T03:39:39.873Z,2.13
2017-11-22T03:42:07.562Z,1.50
2017-11-22T03:44:35.384Z,2.93
2017-11-22T03:47:03.127Z,1.43
2017-11-22T03:49:31.648Z,1.37
2017-11-22T03:52:04.809Z,2.20
2017-11-22T03:54:32.523Z,0.93
2017-11-22T03:57:00.233Z,3.80
2017-11-22T03:59:28.003Z,1.80
2017-11-22T04:01:58.574Z,1.23
2017-11-22T04:04:28.137Z,2.00
2017-11-22T04:06:56.004Z,1.60
2017-11-22T04:09:23.733Z,2.10
2017-11-22T04:11:51.409Z,0.70
2017-11-22T04:14:19.128Z,1.43
2017-11-22T04:16:46.926Z,4.97
2017-11-22T04:19:20.228Z,1.03
2017-11-22T04:21:47.965Z,0.50
2017-11-22T04:24:15.647Z,3.70
2017-11-22T04:26:43.379Z,1.43
2017-11-22T04:29:11.118Z,2.60
2017-11-22T04:31:38.799Z,4.80
2017-11-22T04:34:06.844Z,4.13
2017-11-22T04:36:34.688Z,0.90
2017-11-22T04:39:02.503Z,4.20
2017-11-22T04:41:30.215Z,1.60
2017-11-22T04:43:58.298Z,1.60
2017-11-22T04:46:26.104Z,6.07
2017-11-22T04:48:53.850Z,1.57
2017-11-22T04:51:21.543Z,0.50
2017-11-22T04:53:49.349Z,7.30
2017-11-22T04:56:17.108Z,1.67
2017-11-22T04:58:44.857Z,2.47
2017-11-22T05:01:12.655Z,1.60
2017-11-22T05:03:40.384Z,2.43
2017-11-22T05:06:08.108Z,1.20
2017-11-22T05:08:35.966Z,0.97
2017-11-22T05:11:03.755Z,1.33
2017-11-22T05:13:31.442Z,1.67
2017-11-22T05:15:59.173Z,3.40
2017-11-22T05:18:26.948Z,2.30
2017-11-22T05:20:54.652Z,2.20
2017-11-22T05:23:22.352Z,1.60
2017-11-22T05:25:50.089Z,1.57
2017-11-22T05:28:17.891Z,3.90
2017-11-22T05:30:45.617Z,1.40
2017-11-22T05:33:13.402Z,1.87
2017-11-22T05:35:41.081Z,2.93
2017-11-22T05:38:08.839Z,4.20
2017-11-22T05:40:36.548Z,8.43
2017-11-22T05:43:04.354Z,2.50
2017-11-22T05:45:32.027Z,2.73
2017-11-22T05:47:59.716Z,3.93
2017-11-22T05:50:28.875Z,6.37
2017-11-22T05:52:56.626Z,3.97
2017-11-22T05:55:24.324Z,8.10
2017-11-22T05:57:52.028Z,4.23
2017-11-22T06:00:19.791Z,4.43
2017-11-22T06:02:47.497Z,22.63
2017-11-22T06:05:15.185Z,45.10
2017-11-22T06:07:43.376Z,26.67
2017-11-22T06:10:11.167Z,14.97
2017-11-22T06:12:38.912Z,9.63
2017-11-22T06:15:06.603Z,8.23
2017-11-22T06:17:34.324Z,14.70
2017-11-22T06:20:02.116Z,37.17
2017-11-22T06:22:29.818Z,23.20
2017-11-22T06:24:57.571Z,19.30
2017-11-22T06:27:25.280Z,17.37
2017-11-22T06:29:57.827Z,21.10
2017-11-22T06:32:25.722Z,17.23
2017-11-22T06:34:53.475Z,13.27
2017-11-22T06:37:21.168Z,8.60
2017-11-22T06:39:48.886Z,16.83
2017-11-22T06:42:16.631Z,9.53
2017-11-22T06:44:44.382Z,12.17
2017-11-22T06:47:12.106Z,6.97
2017-11-22T06:49:39.896Z,7.07
2017-11-22T06:52:07.661Z,7.20
2017-11-22T06:54:35.359Z,13.43
2017-11-22T06:57:03.128Z,12.77
2017-11-22T06:59:30.846Z,7.27
2017-11-22T07:01:59.474Z,7.60
2017-11-22T07:04:27.233Z,7.67
2017-11-22T07:06:54.933Z,3.23
2017-11-22T07:09:22.781Z,2.53
2017-11-22T07:11:51.396Z,2.90
2017-11-22T07:14:19.144Z,3.87
2017-11-22T07:16:52.381Z,4.20
2017-11-22T07:19:20.090Z,5.83
2017-11-22T07:21:49.007Z,3.10
2017-11-22T07:24:16.720Z,7.13
2017-11-22T07:26:44.562Z,6.10
2017-11-22T07:29:12.448Z,3.07
2017-11-22T07:31:40.180Z,14.90
2017-11-22T07:34:07.890Z,1.50
2017-11-22T07:36:41.251Z,4.53
2017-11-22T07:39:08.949Z,5.07
2017-11-22T07:41:36.745Z,3.33
2017-11-22T07:44:04.447Z,7.10
2017-11-22T07:46:32.259Z,3.97
2017-11-22T07:49:00.054Z,7.60
2017-11-22T07:51:34.121Z,6.97
2017-11-22T07:54:01.924Z,4.83
2017-11-22T07:56:29.615Z,5.27
2017-11-22T07:58:57.356Z,8.30
2017-11-22T08:01:26.351Z,4.27
2017-11-22T08:03:59.737Z,5.77
2017-11-22T08:06:27.435Z,7.87
2017-11-22T08:08:55.138Z,10.73
2017-11-22T08:11:22.901Z,10.00
2017-11-22T08:13:50.651Z,11.10
2017-11-22T08:16:18.324Z,8.53
2017-11-22T08:18:46.364Z,11.30
2017-11-22T08:21:14.114Z,14.67
2017-11-22T08:23:41.846Z,22.97
2017-11-22T08:26:09.587Z,18.30
2017-11-22T08:28:37.359Z,17.13
2017-11-22T08:31:05.116Z,10.40
2017-11-22T08:33:32.869Z,9.53
2017-11-22T08:36:00.575Z,8.53
2017-11-22T08:38:28.247Z,6.80
2017-11-22T08:40:56.104Z,9.63
2017-11-22T08:43:29.487Z,9.17
2017-11-22T08:45:57.208Z,9.33
2017-11-22T08:48:25.331Z,12.50
2017-11-22T08:50:53.051Z,4.17
2017-11-22T08:53:20.749Z,7.33
2017-11-22T08:55:54.102Z,5.00
2017-11-22T08:58:22.001Z,4.47
2017-11-22T09:00:49.747Z,6.73
2017-11-22T09:03:17.501Z,4.30
2017-11-22T09:05:49.082Z,4.47
2017-11-22T09:08:16.804Z,5.77
2017-11-22T09:10:44.497Z,11.63
2017-11-22T09:13:20.527Z,4.30
2017-11-22T09:15:48.275Z,4.13
2017-11-22T09:18:21.598Z,8.07
2017-11-22T09:20:49.396Z,5.60
2017-11-22T09:23:17.139Z,8.07
2017-11-22T09:25:44.874Z,8.60
2017-11-22T09:28:12.624Z,9.30
2017-11-22T09:30:46.113Z,5.47
2017-11-22T09:33:13.792Z,6.60
2017-11-22T09:35:41.567Z,3.43
2017-11-22T09:38:09.317Z,5.00
2017-11-22T09:40:37.005Z,10.73
2017-11-22T09:43:04.795Z,11.33
2017-11-22T09:45:32.579Z,4.97
2017-11-22T09:48:00.285Z,6.50
2017-11-22T09:50:28.267Z,4.30
2017-11-22T09:52:55.950Z,7.27
2017-11-22T09:55:23.658Z,5.60
2017-11-22T09:57:51.409Z,6.63
2017-11-22T10:00:19.158Z,4.00
2017-11-22T10:02:46.860Z,6.00
2017-11-22T10:05:14.595Z,3.80
2017-11-22T10:07:42.340Z,11.13
2017-11-22T10:10:10.097Z,9.63
2017-11-22T10:12:37.760Z,6.10
2017-11-22T10:15:05.453Z,8.97
2017-11-22T10:17:34.168Z,7.70
2017-11-22T10:20:04.833Z,9.50
2017-11-22T10:22:50.281Z,12.00
2017-11-22T10:25:20.008Z,6.07
2017-11-22T10:27:47.947Z,11.83
2017-11-22T10:30:15.737Z,6.57
2017-11-22T10:32:49.110Z,5.77
2017-11-22T10:35:16.943Z,6.30
2017-11-22T10:37:44.698Z,6.70
2017-11-22T10:40:12.449Z,9.43
2017-11-22T10:42:40.198Z,4.83
2017-11-22T10:45:07.917Z,3.23
2017-11-22T10:47:35.666Z,10.47
2017-11-22T10:50:03.649Z,10.47
2017-11-22T10:52:31.529Z,7.60
2017-11-22T10:54:59.323Z,4.60
2017-11-22T10:57:27.070Z,4.37
2017-11-22T10:59:54.838Z,4.90
2017-11-22T11:02:22.556Z,8.50
2017-11-22T11:04:51.264Z,5.70
2017-11-22T11:07:18.989Z,2.23
2017-11-22T11:09:46.768Z,3.67
2017-11-22T11:12:14.662Z,3.90
2017-11-22T11:14:42.383Z,10.70
2017-11-22T11:17:11.212Z,11.03
2017-11-22T11:19:39.274Z,7.77
2017-11-22T11:22:07.032Z,6.30
2017-11-22T11:24:34.872Z,5.97
2017-11-22T11:27:02.596Z,5.20
2017-11-22T11:29:30.363Z,6.50
2017-11-22T11:31:58.077Z,5.50
2017-11-22T11:34:26.129Z,3.43
2017-11-22T11:36:54.203Z,5.50
2017-11-22T11:39:22.087Z,5.47
2017-11-22T11:41:49.954Z,5.17
2017-11-22T11:44:17.851Z,4.93
2017-11-22T11:46:45.738Z,9.97
2017-11-22T11:49:13.525Z,5.03
2017-11-22T11:51:42.331Z,5.60
2017-11-22T11:54:10.120Z,4.90
2017-11-22T11:56:37.905Z,4.60
2017-11-22T11:59:05.594Z,3.60
2017-11-22T12:01:33.346Z,6.77
2017-11-22T12:04:01.129Z,7.13
2017-11-22T12:06:28.861Z,5.50
2017-11-22T12:08:56.567Z,3.20
2017-11-22T12:11:24.415Z,11.17
2017-11-22T12:13:52.114Z,24.13
2017-11-22T12:16:19.880Z,4.10
2017-11-22T12:18:47.596Z,4.53
2017-11-22T12:21:15.374Z,4.77
2017-11-22T12:23:43.093Z,3.07
2017-11-22T12:26:10.839Z,3.13
2017-11-22T12:28:38.612Z,2.50
2017-11-22T12:31:06.343Z,3.67
2017-11-22T12:33:34.289Z,4.60
2017-11-22T12:36:02.039Z,6.43
2017-11-22T12:38:29.782Z,3.50
2017-11-22T12:40:57.466Z,9.60
2017-11-22T12:43:25.156Z,2.77
2017-11-22T12:45:53.003Z,4.83
2017-11-22T12:48:20.760Z,6.60
2017-11-22T12:50:49.035Z,14.57
2017-11-22T12:53:16.738Z,6.90
2017-11-22T12:55:45.203Z,27.77
2017-11-22T12:58:12.867Z,13.60
2017-11-22T13:00:40.635Z,5.47
2017-11-22T13:03:08.398Z,5.40
2017-11-22T13:05:36.148Z,5.00
2017-11-22T13:08:03.947Z,12.03
2017-11-22T13:10:34.639Z,30.83
2017-11-22T13:13:03.662Z,6.37
2017-11-22T13:15:31.502Z,7.47
2017-11-22T13:17:59.282Z,6.40
2017-11-22T13:20:27.053Z,5.43
2017-11-22T13:22:54.713Z,6.90
2017-11-22T13:25:22.479Z,3.73
2017-11-22T13:27:50.248Z,8.70
2017-11-22T13:30:18.700Z,7.60
2017-11-22T13:32:46.586Z,4.53
2017-11-22T13:35:14.343Z,5.50
2017-11-22T13:37:42.127Z,13.93
2017-11-22T13:40:09.924Z,13.47
2017-11-22T13:42:40.557Z,5.77
2017-11-22T13:45:09.188Z,11.83
2017-11-22T13:47:36.952Z,10.20
2017-11-22T13:50:04.757Z,8.13
2017-11-22T13:52:32.571Z,15.13
2017-11-22T13:55:01.578Z,12.90
2017-11-22T13:57:29.347Z,25.43
2017-11-22T13:59:57.260Z,20.20
2017-11-22T14:02:24.999Z,22.30
2017-11-22T14:04:52.766Z,11.47
2017-11-22T14:07:20.629Z,7.90
2017-11-22T14:09:48.395Z,8.83
2017-11-22T14:12:16.233Z,7.47
2017-11-22T14:14:44.005Z,13.63
2017-11-22T14:17:11.845Z,6.30
2017-11-22T14:19:39.656Z,9.10
2017-11-22T14:22:07.458Z,8.47
2017-11-22T14:24:35.160Z,9.63
2017-11-22T14:27:02.962Z,12.77
2017-11-22T14:29:30.755Z,16.10
2017-11-22T14:31:58.496Z,6.13
2017-11-22T14:34:26.278Z,17.73
2017-11-22T14:36:54.242Z,13.33
2017-11-22T14:39:22.061Z,12.60
2017-11-22T14:41:49.873Z,15.80
2017-11-22T14:44:17.701Z,17.07
2017-11-22T14:46:45.518Z,24.37
2017-11-22T14:49:13.301Z,25.90
2017-11-22T14:51:41.287Z,74.53
2017-11-22T14:54:09.387Z,72.40
2017-11-22T14:56:37.193Z,24.30
2017-11-22T14:59:05.093Z,42.43
2017-11-22T15:01:33.087Z,59.77
2017-11-22T15:04:00.990Z,34.50
2017-11-22T15:06:28.803Z,46.70
2017-11-22T15:08:56.614Z,28.47
2017-11-22T15:11:24.561Z,38.73
2017-11-22T15:13:52.338Z,55.67
2017-11-22T15:16:20.238Z,22.77
2017-11-22T15:18:48.033Z,33.10
2017-11-22T15:21:15.847Z,45.40
2017-11-22T15:23:43.673Z,52.47
2017-11-22T15:26:11.630Z,45.80
2017-11-22T15:28:39.392Z,110.70
2017-11-22T15:31:07.218Z,70.17
2017-11-22T15:33:35.097Z,115.53
2017-11-22T15:36:02.970Z,67.83
2017-11-22T15:38:30.746Z,28.27
2017-11-22T15:40:58.502Z,77.90
2017-11-22T15:43:26.291Z,97.53
2017-11-22T15:45:54.042Z,124.80
2017-11-22T15:48:21.926Z,20.87
2017-11-22T15:50:49.648Z,33.90
2017-11-22T15:53:17.395Z,29.80
2017-11-22T15:55:45.121Z,28.20
2017-11-22T15:58:12.877Z,29.33
2017-11-22T16:00:40.704Z,13.07
2017-11-22T16:03:08.395Z,14.30
2017-11-22T16:05:36.124Z,87.07
2017-11-22T16:08:03.864Z,16.70
2017-11-22T16:10:31.530Z,16.73
2017-11-22T16:12:59.349Z,21.07
2017-11-22T16:15:27.168Z,40.07
2017-11-22T16:17:54.967Z,24.00
2017-11-22T16:20:22.738Z,31.40
2017-11-22T16:22:50.544Z,48.13
2017-11-22T16:25:18.393Z,30.13
2017-11-22T16:27:46.140Z,39.70
2017-11-22T16:30:14.079Z,37.13
2017-11-22T16:32:42.697Z,30.57
2017-11-22T16:35:10.514Z,51.83
2017-11-22T16:37:38.398Z,24.07
2017-11-22T16:40:06.178Z,25.40
2017-11-22T16:42:33.928Z,42.57
2017-11-22T16:45:01.704Z,31.70
2017-11-22T16:47:29.548Z,30.40
2017-11-22T16:49:57.281Z,53.47
2017-11-22T16:52:25.150Z,36.87
2017-11-22T16:54:52.937Z,30.27
2017-11-22T16:57:20.729Z,29.20
2017-11-22T16:59:48.473Z,43.77
2017-11-22T17:02:16.291Z,96.57
2017-11-22T17:04:44.020Z,36.57
2017-11-22T17:07:11.835Z,32.50
2017-11-22T17:09:39.711Z,11.87
2017-11-22T17:12:07.551Z,8.80
2017-11-22T17:14:35.340Z,14.13
2017-11-22T17:17:03.112Z,9.90
2017-11-22T17:19:30.953Z,14.50
2017-11-22T17:21:58.715Z,11.60
2017-11-22T17:24:26.590Z,12.57
2017-11-22T17:26:54.408Z,16.97
2017-11-22T17:29:22.231Z,61.53
2017-11-22T17:31:50.003Z,55.23
2017-11-22T17:34:17.762Z,14.30
2017-11-22T17:36:45.498Z,8.23
2017-11-22T17:39:13.328Z,8.83
2017-11-22T17:41:41.965Z,26.80
2017-11-22T17:44:09.813Z,17.27
2017-11-22T17:46:37.510Z,30.83
2017-11-22T17:49:05.282Z,26.47
2017-11-22T17:51:33.044Z,48.80
2017-11-22T17:54:00.800Z,32.53
2017-11-22T17:56:28.561Z,53.10
2017-11-22T17:58:56.337Z,73.43
2017-11-22T18:01:24.124Z,23.93
2017-11-22T18:03:52.076Z,47.47
2017-11-22T18:06:19.987Z,41.33
2017-11-22T18:08:47.902Z,31.80
2017-11-22T18:11:15.779Z,67.17
2017-11-22T18:13:43.558Z,69.63
2017-11-22T18:16:11.376Z,51.20
2017-11-22T18:18:39.164Z,100.00
2017-11-22T18:21:06.937Z,46.90
2017-11-22T18:23:34.891Z,78.87
2017-11-22T18:26:02.971Z,45.93
2017-11-22T18:28:31.720Z,14.20
2017-11-22T18:30:59.720Z,16.07
2017-11-22T18:33:27.556Z,13.83
2017-11-22T18:35:55.375Z,17.40
2017-11-22T18:38:23.308Z,20.93
2017-11-22T18:40:51.175Z,14.23
2017-11-22T18:43:18.927Z,14.83
2017-11-22T18:45:46.801Z,20.57
2017-11-22T18:48:14.685Z,36.90
2017-11-22T18:50:43.474Z,28.93
2017-11-22T18:53:12.801Z,16.67
2017-11-22T18:55:43.331Z,57.23
2017-11-22T18:58:13.093Z,33.13
2017-11-22T19:00:41.055Z,26.63
2017-11-22T19:03:18.388Z,130.83
2017-11-22T19:05:48.862Z,52.27
2017-11-22T19:08:17.513Z,86.27
2017-11-22T19:10:45.538Z,30.27
2017-11-22T19:13:15.269Z,150.70
2017-11-22T19:15:43.137Z,57.77
2017-11-22T19:18:10.863Z,64.70
2017-11-22T19:20:38.663Z,91.40
2017-11-22T19:23:07.528Z,76.33
2017-11-22T19:25:35.369Z,103.37
2017-11-22T19:28:03.552Z,86.07
2017-11-22T19:30:31.410Z,51.33
2017-11-22T19:32:59.234Z,94.30
2017-11-22T19:35:27.407Z,27.67
2017-11-22T19:37:57.237Z,20.73
2017-11-22T19:40:25.041Z,34.27
2017-11-22T19:42:52.876Z,23.00
2017-11-22T19:45:20.633Z,19.60
2017-11-22T19:47:50.042Z,14.90
2017-11-22T19:50:18.320Z,15.40
2017-11-22T19:52:46.220Z,16.10
2017-11-22T19:55:13.985Z,24.07
2017-11-22T19:57:41.877Z,38.27
2017-11-22T20:00:09.693Z,62.00
2017-11-22T20:02:37.453Z,41.03
2017-11-22T20:05:06.319Z,83.03
2017-11-22T20:07:45.820Z,21.13
2017-11-22T20:10:13.657Z,27.00
2017-11-22T20:12:41.799Z,24.97
2017-11-22T20:15:09.873Z,28.83
2017-11-22T20:17:37.740Z,46.27
2017-11-22T20:20:06.383Z,60.17
2017-11-22T20:22:34.291Z,74.53
2017-11-22T20:25:02.119Z,98.53
2017-11-22T20:27:29.924Z,34.53
2017-11-22T20:29:57.713Z,102.37
2017-11-22T20:32:25.407Z,67.60
2017-11-22T20:34:53.231Z,154.50
2017-11-22T20:37:21.029Z,26.80
2017-11-22T20:39:48.766Z,33.37
2017-11-22T20:42:16.522Z,21.70
2017-11-22T20:44:44.236Z,21.40
2017-11-22T20:47:12.046Z,59.70
2017-11-22T20:49:39.913Z,33.63
2017-11-22T20:52:08.783Z,80.50
2017-11-22T20:54:36.551Z,47.93
2017-11-22T20:57:04.392Z,30.67
2017-11-22T20:59:32.196Z,63.63
2017-11-22T21:02:00.519Z,35.70
2017-11-22T21:04:28.339Z,75.83
2017-11-22T21:06:56.037Z,82.00
2017-11-22T21:09:23.786Z,118.77
2017-11-22T21:11:51.603Z,114.70
2017-11-22T21:14:19.394Z,106.63
2017-11-22T21:16:48.222Z,29.83
2017-11-22T21:19:15.934Z,27.63
2017-11-22T21:21:43.626Z,46.47
2017-11-22T21:24:11.410Z,68.53
2017-11-22T21:26:39.286Z,51.87
2017-11-22T21:29:07.065Z,42.87
2017-11-22T21:31:36.042Z,45.80
2017-11-22T21:34:03.901Z,94.27
2017-11-22T21:36:32.189Z,84.77
2017-11-22T21:38:59.889Z,147.20
2017-11-22T21:41:27.604Z,52.10
2017-11-22T21:43:55.415Z,164.57
2017-11-22T21:46:23.170Z,42.07
2017-11-22T21:48:50.872Z,44.10
2017-11-22T21:51:18.626Z,69.57
2017-11-22T21:53:46.326Z,20.23
2017-11-22T21:56:14.162Z,15.90
2017-11-22T21:58:42.041Z,26.60
2017-11-22T22:01:09.762Z,10.23
2017-11-22T22:03:37.559Z,2.23
2017-11-22T22:06:05.272Z,41.63
2017-11-22T22:08:33.001Z,43.43
2017-11-22T22:11:00.764Z,12.20
2017-11-22T22:13:28.462Z,38.13
2017-11-22T22:15:56.260Z,124.00
2017-11-22T22:18:24.040Z,149.33
2017-11-22T22:20:51.739Z,9.73
2017-11-22T22:23:19.507Z,34.77
2017-11-22T22:25:47.253Z,49.60
2017-11-22T22:28:15.172Z,7.77
2017-11-22T22:30:42.975Z,9.80
2017-11-22T22:33:10.693Z,9.40
2017-11-22T22:35:38.464Z,12.93
2017-11-22T22:38:06.169Z,104.23
2017-11-22T22:40:33.874Z,73.70
2017-11-22T22:43:01.609Z,15.67
2017-11-22T22:45:29.380Z,3.20
2017-11-22T22:47:57.091Z,84.40
2017-11-22T22:50:24.825Z,15.00
2017-11-22T22:52:52.609Z,12.03
2017-11-22T22:55:20.320Z,17.53
2017-11-22T22:57:48.079Z,7.80
2017-11-22T23:00:15.851Z,93.30
2017-11-22T23:02:43.552Z,13.47
2017-11-22T23:05:11.400Z,45.83
2017-11-22T23:07:39.087Z,6.77
2017-11-22T23:10:06.782Z,4.40
2017-11-22T23:12:34.569Z,79.97
2017-11-22T23:15:02.259Z,6.10
2017-11-22T23:17:29.970Z,20.47
2017-11-22T23:19:57.714Z,45.10
2017-11-22T23:22:25.400Z,35.13
2017-11-22T23:24:53.074Z,20.90
2017-11-22T23:27:20.801Z,43.60
2017-11-22T23:29:48.490Z,33.63
2017-11-22T23:32:16.246Z,62.20
2017-11-22T23:34:44.052Z,186.17
2017-11-22T23:37:11.921Z,125.73
2017-11-22T23:39:39.674Z,154.13
2017-11-22T23:42:07.445Z,122.77
2017-11-22T23:44:35.135Z,187.53
2017-11-22T23:47:02.879Z,133.33
2017-11-22T23:49:30.627Z,110.07
2017-11-22T23:51:58.443Z,115.03
2017-11-22T23:54:26.152Z,177.43
2017-11-22T23:56:53.867Z,76.27
2017-11-22T23:59:21.657Z,78.70
